Time;durP1;ratioP1;P1;durP2;ratioP2;P2;SDS_P1;SDS_P2;PMS_P1;PMS_P2;Temp;Humidity;BMP_temperature;BMP_pressure;BME280_temperature;BME280_humidity;BME280_pressure;Samples;Min_cycle;Max_cycle;Signal;HPM_P1;HPM_P2
2022/11/21 00:01:44;;;;;;;;;;;;;;;18.69;73.78;100720.25;5054001;28;20443;-89
2022/11/21 00:04:09;;;;;;;;;;;;;;;18.66;73.97;100721.06;5065155;28;20366;-86
2022/11/21 00:06:35;;;;;;;;;;;;;;;18.67;73.95;100709.63;5059784;28;20275;-88
2022/11/21 00:09:00;;;;;;;;;;;;;;;18.65;74.12;100691.97;5069855;28;20389;-87
2022/11/21 00:11:26;;;;;;;;;;;;;;;18.64;73.96;100688.41;5065190;28;20286;-89
2022/11/21 00:13:51;;;;;;;;;;;;;;;18.64;74.13;100696.34;5085819;28;20386;-88
2022/11/21 00:16:19;;;;;;;;;;;;;;;18.64;74.22;100684.88;5073860;28;20396;-88
2022/11/21 00:18:47;;;;;;;;;;;;;;;18.64;73.99;100680.47;5080358;28;19913;-89
2022/11/21 00:21:14;;;;;;;;;;;;;;;18.65;73.96;100665.50;5075618;28;19924;-89
2022/11/21 00:23:40;;;;;;;;;;;;;;;18.67;73.76;100661.13;5064696;28;20282;-91
2022/11/21 00:26:07;;;;;;;;;;;;;;;18.64;73.95;100656.66;5071044;28;19919;-89
2022/11/21 00:28:33;;;;;;;;;;;;;;;18.63;73.69;100649.59;5059527;28;19978;-89
2022/11/21 00:30:58;;;;;;;;;;;;;;;18.64;74.15;100646.06;5056907;28;19908;-87
2022/11/21 00:33:26;;;;;;;;;;;;;;;18.64;73.98;100638.13;5069909;28;19912;-90
2022/11/21 00:35:52;;;;;;;;;;;;;;;18.63;74.11;100632.84;5055343;28;19908;-90
2022/11/21 00:38:17;;;;;;;;;;;;;;;18.63;74.03;100631.09;5068971;28;19977;-90
2022/11/21 00:40:43;;;;;;;;;;;;;;;18.62;74.08;100629.28;5055344;28;20386;-85
2022/11/21 00:43:10;;;;;;;;;;;;;;;18.63;74.24;100631.09;5072952;28;19954;-91
2022/11/21 00:45:37;;;;;;;;;;;;;;;18.62;74.11;100625.75;5070172;28;19909;-90
2022/11/21 00:48:12;;;;;;;;;;;;;;;18.62;74.27;100623.13;5059203;28;19912;-89
2022/11/21 00:50:43;;;;;;;;;;;;;;;18.61;74.25;100619.59;5061193;28;19951;-91
2022/11/21 00:53:09;;;;;;;;;;;;;;;18.61;74.08;100611.66;5056386;28;19958;-91
2022/11/21 00:55:36;;;;;;;;;;;;;;;18.61;74.35;100609.00;5074873;28;19943;-91
2022/11/21 00:58:07;;;;;;;;;;;;;;;18.61;74.33;100598.44;5054372;28;20324;-89
2022/11/21 01:00:37;;;;;;;;;;;;;;;18.60;74.39;100586.06;5059704;28;19923;-90
2022/11/21 01:03:02;;;;;;;;;;;;;;;18.59;74.37;100581.63;5065687;28;19920;-90
2022/11/21 01:05:31;;;;;;;;;;;;;;;18.63;74.35;100574.66;5060297;28;19935;-90
2022/11/21 01:07:57;;;;;;;;;;;;;;;18.64;74.08;100560.56;5054598;28;20408;-88
2022/11/21 01:10:24;;;;;;;;;;;;;;;18.63;74.15;100557.03;5054691;28;19916;-90
2022/11/21 01:12:50;;;;;;;;;;;;;;;18.61;74.12;100545.53;5054578;28;19939;-90
2022/11/21 01:15:16;;;;;;;;;;;;;;;18.62;74.16;100530.53;5049583;28;20370;-90
2022/11/21 01:17:41;;;;;;;;;;;;;;;18.60;74.11;100538.44;5060154;28;19985;-90
2022/11/21 01:20:07;;;;;;;;;;;;;;;18.61;73.97;100540.25;5072763;28;19924;-90
2022/11/21 01:22:33;;;;;;;;;;;;;;;18.62;73.67;100539.38;5075506;28;20300;-90
2022/11/21 01:24:58;;;;;;;;;;;;;;;18.63;73.93;100533.22;5088158;28;20384;-90
2022/11/21 01:27:24;;;;;;;;;;;;;;;18.60;73.92;100527.00;5062349;28;19919;-91
2022/11/21 01:29:51;;;;;;;;;;;;;;;18.62;73.73;100530.53;5047608;28;20286;-88
2022/11/21 01:32:17;;;;;;;;;;;;;;;18.63;73.90;100530.59;5055504;28;19998;-89
2022/11/21 01:34:44;;;;;;;;;;;;;;;18.63;73.38;100519.13;5056451;28;19970;-90
2022/11/21 01:37:10;;;;;;;;;;;;;;;18.61;73.68;100507.63;5055134;28;19912;-90
2022/11/21 01:39:38;;;;;;;;;;;;;;;18.64;73.74;100503.25;5075417;28;19924;-90
2022/11/21 01:42:03;;;;;;;;;;;;;;;18.65;73.54;100502.41;5064208;28;19911;-91
2022/11/21 01:44:49;;;;;;;;;;;;;;;18.64;73.72;100487.38;5073839;28;20370;-91
2022/11/21 01:47:15;;;;;;;;;;;;;;;18.64;73.84;100492.69;5079350;28;19912;-91
2022/11/21 01:49:40;;;;;;;;;;;;;;;18.60;73.96;100503.19;5055052;28;19968;-91
2022/11/21 01:52:10;;;;;;;;;;;;;;;18.63;73.81;100505.91;5082586;28;19908;-91
2022/11/21 01:54:36;;;;;;;;;;;;;;;18.64;73.51;100505.03;5064005;28;19920;-91
2022/11/21 01:57:08;;;;;;;;;;;;;;;18.61;73.82;100497.94;5085089;28;19912;-91
2022/11/21 01:59:36;;;;;;;;;;;;;;;18.62;73.58;100502.34;5064209;28;19944;-91
2022/11/21 02:02:02;;;;;;;;;;;;;;;18.62;73.89;100504.09;5079964;28;20409;-91
2022/11/21 02:04:29;;;;;;;;;;;;;;;18.64;73.39;100502.38;5058297;28;19912;-90
2022/11/21 02:06:55;;;;;;;;;;;;;;;18.61;73.54;100494.41;5063041;28;19908;-91
2022/11/21 02:09:21;;;;;;;;;;;;;;;18.64;73.82;100491.78;5074170;28;19965;-90
2022/11/21 02:11:48;;;;;;;;;;;;;;;18.62;73.31;100488.22;5076257;28;19999;-90
2022/11/21 02:14:14;;;;;;;;;;;;;;;18.63;73.25;100482.97;5061293;28;20399;-90
2022/11/21 02:16:39;;;;;;;;;;;;;;;18.63;73.49;100479.44;5071575;28;19959;-90
2022/11/21 02:19:07;;;;;;;;;;;;;;;18.61;73.28;100482.06;5068565;28;20001;-90
2022/11/21 02:21:35;;;;;;;;;;;;;;;18.60;73.14;100471.44;5056385;28;19919;-90
2022/11/21 02:24:08;;;;;;;;;;;;;;;18.57;73.49;100463.47;5062996;28;20301;-90
2022/11/21 02:26:33;;;;;;;;;;;;;;;18.55;73.63;100460.81;5056332;28;20006;-90
2022/11/21 02:29:00;;;;;;;;;;;;;;;18.59;73.49;100457.34;5082110;28;20016;-90
2022/11/21 02:31:25;;;;;;;;;;;;;;;18.59;73.38;100457.34;5054307;28;19920;-90
2022/11/21 02:33:50;;;;;;;;;;;;;;;18.61;73.28;100462.66;5051858;28;19913;-90
2022/11/21 02:36:36;;;;;;;;;;;;;;;18.61;72.95;100462.66;5070650;28;19924;-90
2022/11/21 02:39:02;;;;;;;;;;;;;;;18.59;72.97;100460.00;5071315;28;20370;-90
2022/11/21 02:41:28;;;;;;;;;;;;;;;18.57;73.11;100459.06;5054775;28;19912;-89
2022/11/21 02:43:56;;;;;;;;;;;;;;;18.57;73.34;100444.97;5070308;28;19919;-90
2022/11/21 02:46:24;;;;;;;;;;;;;;;18.55;73.28;100452.00;5054177;28;19912;-91
2022/11/21 02:48:50;;;;;;;;;;;;;;;18.56;73.49;100445.81;5049882;28;20333;-90
2022/11/21 02:51:16;;;;;;;;;;;;;;;18.56;73.31;100440.53;5088339;28;19908;-90
2022/11/21 02:53:45;;;;;;;;;;;;;;;18.56;73.22;100433.47;5054029;28;19995;-90
2022/11/21 02:56:11;;;;;;;;;;;;;;;18.52;73.37;100427.28;5071640;28;19912;-90
2022/11/21 02:58:37;;;;;;;;;;;;;;;18.58;73.25;100422.94;5054201;28;19986;-89
2022/11/21 03:01:02;;;;;;;;;;;;;;;18.57;73.25;100419.41;5061587;28;20462;-90
2022/11/21 03:03:28;;;;;;;;;;;;;;;18.58;73.24;100412.34;5081962;28;19912;-89
2022/11/21 03:05:56;;;;;;;;;;;;;;;18.59;72.94;100411.50;5064452;28;19912;-90
2022/11/21 03:08:21;;;;;;;;;;;;;;;18.60;72.93;100405.34;5055418;28;19912;-90
2022/11/21 03:10:47;;;;;;;;;;;;;;;18.58;73.17;100400.00;5055431;28;20423;-89
2022/11/21 03:13:12;;;;;;;;;;;;;;;18.57;73.03;100390.31;5061370;28;20440;-90
2022/11/21 03:15:38;;;;;;;;;;;;;;;18.56;72.90;100382.34;5075644;28;20356;-90
2022/11/21 03:18:03;;;;;;;;;;;;;;;18.55;72.97;100373.53;5051541;28;19912;-89
2022/11/21 03:20:29;;;;;;;;;;;;;;;18.57;73.08;100363.00;5074202;28;20389;-90
2022/11/21 03:22:58;;;;;;;;;;;;;;;18.57;72.97;100370.94;5065102;28;19913;-90
2022/11/21 03:25:23;;;;;;;;;;;;;;;18.57;72.53;100363.88;5062122;28;19908;-90
2022/11/21 03:27:51;;;;;;;;;;;;;;;18.54;73.18;100374.38;5075990;28;19911;-90
2022/11/21 03:30:17;;;;;;;;;;;;;;;18.57;73.16;100363.00;5069913;28;19914;-90
2022/11/21 03:32:43;;;;;;;;;;;;;;;18.54;72.75;100355.88;5082505;28;19995;-90
2022/11/21 03:35:09;;;;;;;;;;;;;;;18.52;73.07;100366.47;5054733;28;19967;-90
2022/11/21 03:37:35;;;;;;;;;;;;;;;18.55;72.38;100368.25;5064514;28;19932;-90
2022/11/21 03:40:00;;;;;;;;;;;;;;;18.56;72.63;100361.19;5058939;28;19970;-91
2022/11/21 03:42:28;;;;;;;;;;;;;;;18.52;73.13;100349.72;5094030;28;20301;-91
2022/11/21 03:44:55;;;;;;;;;;;;;;;18.53;72.74;100346.19;5078319;28;19912;-90
2022/11/21 03:47:23;;;;;;;;;;;;;;;18.50;72.83;100349.69;5074802;28;19916;-91
2022/11/21 03:49:49;;;;;;;;;;;;;;;18.51;72.66;100355.84;5058962;28;20267;-88
2022/11/21 03:52:15;;;;;;;;;;;;;;;18.52;73.03;100352.34;5050404;28;19908;-88
2022/11/21 03:54:40;;;;;;;;;;;;;;;18.53;72.37;100343.53;5069646;28;20427;-90
2022/11/21 03:57:06;;;;;;;;;;;;;;;18.54;72.69;100355.88;5083113;28;20374;-90
2022/11/21 03:59:31;;;;;;;;;;;;;;;18.57;72.40;100365.63;5079136;28;20369;-91
2022/11/21 04:01:56;;;;;;;;;;;;;;;18.55;72.81;100348.84;5057603;28;19912;-90
2022/11/21 04:04:22;;;;;;;;;;;;;;;18.52;72.79;100369.09;5057433;28;19999;-89
2022/11/21 04:06:47;;;;;;;;;;;;;;;18.52;72.22;100357.66;5058022;28;20292;-91
2022/11/21 04:09:15;;;;;;;;;;;;;;;18.51;72.67;100375.25;5060349;28;19908;-90
2022/11/21 04:11:40;;;;;;;;;;;;;;;18.48;72.95;100367.28;5092831;28;19927;-89
2022/11/21 04:14:05;;;;;;;;;;;;;;;18.55;73.11;100370.91;5079862;28;19916;-89
2022/11/21 04:16:31;;;;;;;;;;;;;;;18.58;72.81;100370.03;5069556;28;20348;-88
2022/11/21 04:18:57;;;;;;;;;;;;;;;18.56;73.00;100363.84;5097536;28;19912;-90
2022/11/21 04:21:23;;;;;;;;;;;;;;;18.54;72.44;100358.53;5054956;28;19913;-89
2022/11/21 04:23:49;;;;;;;;;;;;;;;18.58;72.84;100347.13;5068125;28;20443;-90
2022/11/21 04:26:20;;;;;;;;;;;;;;;18.56;72.57;100346.22;5072663;28;19912;-91
2022/11/21 04:28:48;;;;;;;;;;;;;;;18.54;72.67;100332.06;5087444;28;19912;-91
2022/11/21 04:31:14;;;;;;;;;;;;;;;18.55;72.91;100327.72;5075306;28;19966;-90
2022/11/21 04:33:40;;;;;;;;;;;;;;;18.52;72.48;100347.06;5072600;28;19908;-91
2022/11/21 04:36:06;;;;;;;;;;;;;;;18.47;72.32;100349.63;5074147;28;19974;-90
2022/11/21 04:38:33;;;;;;;;;;;;;;;18.38;72.82;100345.97;5057181;28;19909;-91
2022/11/21 04:41:18;;;;;;;;;;;;;;;18.42;72.13;100334.56;5074165;28;19912;-93
2022/11/21 04:43:59;;;;;;;;;;;;;;;18.43;72.37;100345.13;5076786;28;19930;-93
2022/11/21 04:46:31;;;;;;;;;;;;;;;18.41;72.24;100359.22;5066194;28;19915;-92
2022/11/21 04:48:57;;;;;;;;;;;;;;;18.49;72.07;100352.28;5069768;28;19995;-93
2022/11/21 04:54:34;;;;;;;;;;;;;;;18.52;72.15;100333.84;5062923;28;19935;-93
2022/11/21 05:00:22;;;;;;;;;;;;;;;18.52;72.46;100307.41;5063616;28;20019;-92
2022/11/21 05:02:53;;;;;;;;;;;;;;;18.54;72.20;100308.28;5057316;28;20026;-92
2022/11/21 05:05:20;;;;;;;;;;;;;;;18.54;72.27;100307.41;5070697;28;19944;-92
2022/11/21 05:07:50;;;;;;;;;;;;;;;18.52;72.46;100318.84;5073293;28;19908;-92
2022/11/21 05:13:19;;;;;;;;;;;;;;;18.52;72.58;100318.84;5079032;28;20297;-93
2022/11/21 05:13:19;;;;;;;;;;;;;;;18.44;72.48;100315.22;5084643;28;19913;-94
2022/11/21 05:16:13;;;;;;;;;;;;;;;18.44;72.03;100320.50;5062125;28;20445;-92
2022/11/21 05:18:42;;;;;;;;;;;;;;;18.46;71.74;100308.19;5070520;28;19912;-92
2022/11/21 05:21:13;;;;;;;;;;;;;;;18.37;72.50;100294.84;5056056;28;19917;-91
2022/11/21 05:23:48;;;;;;;;;;;;;;;18.44;72.31;100285.25;5053632;28;19916;-91
2022/11/21 05:26:19;;;;;;;;;;;;;;;18.44;72.42;100283.47;5050783;28;19908;-91
2022/11/21 05:28:46;;;;;;;;;;;;;;;18.43;72.57;100292.25;5072895;28;19908;-88
2022/11/21 05:31:12;;;;;;;;;;;;;;;18.50;72.05;100306.50;5072843;28;19999;-88
2022/11/21 05:33:37;;;;;;;;;;;;;;;18.43;71.98;100296.69;5072166;28;19952;-88
2022/11/21 05:36:03;;;;;;;;;;;;;;;18.46;72.04;100300.25;5072067;28;19908;-87
2022/11/21 05:38:28;;;;;;;;;;;;;;;18.51;71.83;100303.84;5071767;28;19986;-88
2022/11/21 05:40:54;;;;;;;;;;;;;;;18.41;72.28;100306.34;5065100;28;19952;-88
2022/11/21 05:46:04;;;;;;;;;;;;;;;18.43;71.92;100315.19;5066201;28;19914;-89
2022/11/21 05:48:29;;;;;;;;;;;;;;;18.50;72.36;100311.78;5061952;28;20384;-88
2022/11/21 05:50:55;;;;;;;;;;;;;;;18.45;72.03;100302.88;5065872;28;20364;-90
2022/11/21 05:53:20;;;;;;;;;;;;;;;18.47;72.08;100298.50;5085406;28;20419;-87
2022/11/21 05:55:46;;;;;;;;;;;;;;;18.44;71.83;100294.06;5070630;28;20435;-88
2022/11/21 05:58:11;;;;;;;;;;;;;;;18.50;71.90;100315.31;5067071;28;20354;-86
2022/11/21 06:00:37;;;;;;;;;;;;;;;18.50;71.49;100311.78;5067446;28;19916;-86
2022/11/21 06:05:46;;;;;;;;;;;;;;;18.50;71.88;100340.88;5065174;28;19974;-86
2022/11/21 06:08:12;;;;;;;;;;;;;;;18.42;72.35;100340.72;5057156;28;19912;-87
2022/11/21 06:10:37;;;;;;;;;;;;;;;18.33;72.74;100358.19;5056195;28;19961;-87
2022/11/21 06:13:02;;;;;;;;;;;;;;;18.29;72.84;100355.53;5055820;28;20397;-86
2022/11/21 06:15:28;;;;;;;;;;;;;;;18.26;73.11;100387.16;5071132;28;20458;-87
2022/11/21 06:17:53;;;;;;;;;;;;;;;18.41;73.05;100383.88;5068910;28;19916;-87
2022/11/21 06:20:19;;;;;;;;;;;;;;;18.33;73.63;100389.91;5067132;28;19913;-87
2022/11/21 06:22:47;;;;;;;;;;;;;;;18.41;73.32;100391.81;5048819;28;19916;-86
2022/11/21 06:25:12;;;;;;;;;;;;;;;18.42;73.15;100390.97;5054144;28;19915;-87
2022/11/21 06:27:38;;;;;;;;;;;;;;;18.47;73.06;100370.75;5053197;28;19908;-87
2022/11/21 06:30:03;;;;;;;;;;;;;;;18.46;73.39;100403.38;5053054;28;19978;-87
2022/11/21 06:32:29;;;;;;;;;;;;;;;18.46;73.30;100382.22;5044455;28;20508;-87
2022/11/21 06:34:54;;;;;;;;;;;;;;;18.44;73.25;100362.81;5069878;28;19930;-87
2022/11/21 06:37:20;;;;;;;;;;;;;;;18.50;73.07;100368.19;5071471;28;19912;-88
2022/11/21 06:39:45;;;;;;;;;;;;;;;18.49;72.86;100378.72;5087057;28;20396;-85
2022/11/21 06:42:11;;;;;;;;;;;;;;;18.46;72.97;100392.78;5067604;28;19959;-86
2022/11/21 06:44:36;;;;;;;;;;;;;;;18.50;73.09;100383.16;5075165;28;19908;-87
2022/11/21 06:47:07;;;;;;;;;;;;;;;18.52;73.03;100370.88;5077471;28;20381;-89
2022/11/21 06:49:32;;;;;;;;;;;;;;;18.48;73.03;100354.06;5053271;28;20396;-89
2022/11/21 06:51:58;;;;;;;;;;;;;;;18.50;73.00;100349.69;5052297;28;19995;-87
2022/11/21 06:54:24;;;;;;;;;;;;;;;18.54;72.86;100360.28;5062656;28;19908;-88
2022/11/21 06:56:51;;;;;;;;;;;;;;;18.56;72.73;100371.78;5066240;28;19919;-88
2022/11/21 06:59:18;;;;;;;;;;;;;;;18.55;72.73;100365.59;5076231;28;19920;-87
2022/11/21 07:01:44;;;;;;;;;;;;;;;18.47;72.72;100396.31;5058375;28;20422;-88
2022/11/21 07:04:09;;;;;;;;;;;;;;;18.52;72.67;100370.88;5066803;28;19970;-87
2022/11/21 07:06:35;;;;;;;;;;;;;;;18.52;72.53;100378.78;5069794;28;19912;-86
2022/11/21 07:09:00;;;;;;;;;;;;;;;18.52;72.63;100402.59;5077808;28;20393;-86
2022/11/21 07:11:25;;;;;;;;;;;;;;;18.49;72.86;100402.53;5057007;28;19939;-89
2022/11/21 07:13:51;;;;;;;;;;;;;;;18.49;72.69;100408.69;5069479;28;20401;-86
2022/11/21 07:16:16;;;;;;;;;;;;;;;18.51;72.58;100396.38;5072562;28;20500;-87
2022/11/21 07:18:43;;;;;;;;;;;;;;;18.52;72.33;100374.38;5064020;28;19908;-86
2022/11/21 07:21:08;;;;;;;;;;;;;;;18.56;72.20;100359.44;5055576;28;20390;-87
2022/11/21 07:23:34;;;;;;;;;;;;;;;18.54;72.28;100350.59;5049681;28;19915;-86
2022/11/21 07:26:00;;;;;;;;;;;;;;;18.56;72.22;100363.84;5053466;28;19915;-86
2022/11/21 07:28:29;;;;;;;;;;;;;;;18.49;72.12;100350.53;5069576;28;20443;-87
2022/11/21 07:30:55;;;;;;;;;;;;;;;18.49;72.48;100373.44;5069452;28;20559;-87
2022/11/21 07:33:21;;;;;;;;;;;;;;;18.50;72.47;100376.13;5080748;28;19919;-86
2022/11/21 07:35:46;;;;;;;;;;;;;;;18.48;72.57;100361.09;5068728;28;19912;-88
2022/11/21 07:38:11;;;;;;;;;;;;;;;18.51;72.36;100364.66;5059820;28;20374;-87
2022/11/21 07:40:37;;;;;;;;;;;;;;;18.54;72.39;100365.56;5062347;28;20382;-88
2022/11/21 07:43:03;;;;;;;;;;;;;;;18.52;72.29;100361.16;5050082;28;20396;-87
2022/11/21 07:45:28;;;;;;;;;;;;;;;18.49;72.63;100355.81;5052012;28;19908;-86
2022/11/21 07:48:00;;;;;;;;;;;;;;;18.52;72.44;100347.94;5066288;28;20371;-87
2022/11/21 07:50:26;;;;;;;;;;;;;;;18.54;72.45;100349.72;5068492;28;19968;-85
2022/11/21 07:52:56;;;;;;;;;;;;;;;18.54;72.44;100347.06;5083351;28;20002;-87
2022/11/21 07:55:21;;;;;;;;;;;;;;;18.54;72.56;100340.00;5068519;28;20042;-87
2022/11/21 07:57:46;;;;;;;;;;;;;;;18.52;72.58;100353.22;5055057;28;19952;-86
2022/11/21 08:00:12;;;;;;;;;;;;;;;18.51;72.49;100345.28;5069211;28;20397;-87
2022/11/21 08:02:39;;;;;;;;;;;;;;;18.50;73.06;100347.03;5054620;28;20338;-88
2022/11/21 08:05:04;;;;;;;;;;;;;;;18.53;72.56;100346.19;5055310;28;19944;-85
2022/11/21 08:07:29;;;;;;;;;;;;;;;18.51;72.87;100343.50;5056265;28;19983;-85
2022/11/21 08:09:55;;;;;;;;;;;;;;;18.50;73.04;100347.03;5054707;28;20373;-86
2022/11/21 08:12:21;;;;;;;;;;;;;;;18.51;72.83;100358.50;5068548;28;20397;-86
2022/11/21 08:14:47;;;;;;;;;;;;;;;18.49;73.02;100347.00;5049823;28;20468;-87
2022/11/21 08:17:12;;;;;;;;;;;;;;;18.51;72.78;100347.91;5072360;28;20011;-87
2022/11/21 08:19:38;;;;;;;;;;;;;;;18.50;72.82;100357.59;5054954;28;20424;-87
2022/11/21 08:22:03;;;;;;;;;;;;;;;18.51;72.83;100350.56;5049815;28;19916;-86
2022/11/21 08:24:29;;;;;;;;;;;;;;;18.50;73.05;100340.88;5053556;28;20381;-86
2022/11/21 08:26:54;;;;;;;;;;;;;;;18.50;72.99;100343.50;5054416;28;20382;-86
2022/11/21 08:29:20;;;;;;;;;;;;;;;18.52;73.03;100349.72;5069519;28;19915;-86
2022/11/21 08:31:45;;;;;;;;;;;;;;;18.50;73.04;100344.38;5070577;28;19916;-86
2022/11/21 08:34:11;;;;;;;;;;;;;;;18.50;73.13;100347.03;5069405;28;19952;-86
2022/11/21 08:36:36;;;;;;;;;;;;;;;18.51;73.03;100346.16;5085537;28;19913;-87
2022/11/21 08:39:02;;;;;;;;;;;;;;;18.50;73.17;100346.16;5057363;28;19916;-86
2022/11/21 08:44:12;;;;;;;;;;;;;;;18.51;73.10;100327.63;5071103;28;20007;-86
2022/11/21 08:46:37;;;;;;;;;;;;;;;18.54;72.90;100325.91;5070695;28;20422;-86
2022/11/21 08:49:03;;;;;;;;;;;;;;;18.51;73.25;100326.75;5073365;28;20404;-86
2022/11/21 08:51:28;;;;;;;;;;;;;;;18.55;73.07;100310.06;5072861;28;19914;-86
2022/11/21 08:53:54;;;;;;;;;;;;;;;18.57;73.08;100316.28;5058345;28;19916;-88
2022/11/21 08:56:19;;;;;;;;;;;;;;;18.55;73.15;100314.47;5047375;28;19955;-87
2022/11/21 08:58:44;;;;;;;;;;;;;;;18.56;73.17;100306.56;5058117;28;19931;-86
2022/11/21 09:01:10;;;;;;;;;;;;;;;18.55;73.15;100303.91;5065836;28;20423;-87
2022/11/21 09:03:35;;;;;;;;;;;;;;;18.51;73.19;100301.19;5082382;28;20426;-88
2022/11/21 09:06:01;;;;;;;;;;;;;;;18.56;73.25;100306.56;5072534;28;19913;-86
2022/11/21 09:08:26;;;;;;;;;;;;;;;18.57;73.04;100294.25;5072682;28;20368;-87
2022/11/21 09:10:52;;;;;;;;;;;;;;;18.58;73.02;100291.59;5072238;28;19926;-87
2022/11/21 09:13:17;;;;;;;;;;;;;;;18.55;73.21;100288.03;5073692;28;19958;-88
2022/11/21 09:18:26;;;;;;;;;;;;;;;18.56;73.23;100272.16;5061002;28;19989;-85
2022/11/21 09:20:52;;;;;;;;;;;;;;;18.55;73.26;100267.75;5070527;28;19916;-85
2022/11/21 09:23:17;;;;;;;;;;;;;;;18.58;72.99;100253.69;5053039;28;19966;-85
2022/11/21 09:25:43;;;;;;;;;;;;;;;18.59;72.98;100252.84;5059131;28;19914;-85
2022/11/21 09:28:09;;;;;;;;;;;;;;;18.59;73.00;100240.50;5054174;28;20393;-85
2022/11/21 09:30:34;;;;;;;;;;;;;;;18.61;73.07;100228.19;5072551;28;20003;-86
2022/11/21 09:33:04;;;;;;;;;;;;;;;18.60;73.02;100214.94;5073605;28;20447;-86
2022/11/21 09:35:29;;;;;;;;;;;;;;;18.59;72.70;100223.75;5072111;28;19915;-85
2022/11/21 09:37:55;;;;;;;;;;;;;;;18.60;72.81;100218.47;5055625;28;19908;-86
2022/11/21 09:40:20;;;;;;;;;;;;;;;18.59;72.78;100213.19;5054362;28;19952;-88
2022/11/21 09:42:49;;;;;;;;;;;;;;;18.60;72.73;100201.72;5078570;28;19919;-87
2022/11/21 09:45:15;;;;;;;;;;;;;;;18.58;72.98;100193.75;5069925;28;19908;-87
2022/11/21 09:47:41;;;;;;;;;;;;;;;18.58;73.10;100192.88;5076904;28;20061;-86
2022/11/21 09:50:13;;;;;;;;;;;;;;;18.58;72.82;100203.44;5071941;28;19912;-85
2022/11/21 09:52:51;;;;;;;;;;;;;;;18.61;72.85;100201.75;5065413;28;20401;-87
2022/11/21 09:55:23;;;;;;;;;;;;;;;18.59;72.75;100195.53;5082807;28;20356;-86
2022/11/21 09:57:49;;;;;;;;;;;;;;;18.61;72.70;100192.94;5042366;28;20320;-86
2022/11/21 10:00:24;;;;;;;;;;;;;;;18.55;73.09;100190.22;5071768;28;19908;-86
2022/11/21 10:02:52;;;;;;;;;;;;;;;18.61;72.70;100185.00;5051680;28;19913;-87
2022/11/21 10:05:21;;;;;;;;;;;;;;;18.60;72.74;100167.34;5081501;28;19915;-86
2022/11/21 10:07:46;;;;;;;;;;;;;;;18.59;72.91;100165.56;5057312;28;19908;-86
2022/11/21 10:10:17;;;;;;;;;;;;;;;18.62;72.77;100157.66;5071598;28;19915;-85
2022/11/21 10:12:46;;;;;;;;;;;;;;;18.57;72.92;100160.25;5067268;28;19955;-87
2022/11/21 10:15:17;;;;;;;;;;;;;;;18.55;73.14;100155.84;5063213;28;20519;-87
2022/11/21 10:17:49;;;;;;;;;;;;;;;18.59;73.08;100163.81;5066605;28;20587;-86
2022/11/21 10:20:37;;;;;;;;;;;;;;;18.61;73.00;100158.56;5055839;28;20374;-86
2022/11/21 10:23:02;;;;;;;;;;;;;;;18.59;72.93;100147.06;5050594;28;19966;-86
2022/11/21 10:25:37;;;;;;;;;;;;;;;18.58;73.03;100147.91;5056417;28;19909;-86
2022/11/21 10:28:03;;;;;;;;;;;;;;;18.61;73.01;100145.31;5071711;28;20396;-86
2022/11/21 10:30:28;;;;;;;;;;;;;;;18.57;72.95;100197.28;5072322;28;19908;-86
2022/11/21 10:32:57;;;;;;;;;;;;;;;18.62;72.88;100185.00;5071284;28;20003;-86
2022/11/21 10:35:37;;;;;;;;;;;;;;;18.50;73.40;100174.28;5071991;28;19974;-86
2022/11/21 10:38:04;;;;;;;;;;;;;;;18.53;73.17;100158.44;5054425;28;20302;-86
2022/11/21 10:40:33;;;;;;;;;;;;;;;18.59;72.87;100163.81;5056476;28;20074;-86
2022/11/21 10:45:15;;;;;;;;;;;;;;;18.47;72.89;100155.72;5070455;28;20366;-84
2022/11/21 10:45:50;;;;;;;;;;;;;;;18.45;73.27;100149.53;5057757;28;19908;-85
2022/11/21 10:48:16;;;;;;;;;;;;;;;18.44;73.38;100148.66;5064663;28;19911;-86
2022/11/21 10:50:50;;;;;;;;;;;;;;;18.55;72.97;100145.25;5056023;28;20355;-85
2022/11/21 10:56:07;;;;;;;;;;;;;;;18.60;73.00;100140.91;5059996;28;19958;-84
2022/11/21 10:58:43;;;;;;;;;;;;;;;18.60;72.93;100125.91;5052707;28;19939;-86
2022/11/21 11:01:19;;;;;;;;;;;;;;;18.58;73.13;100151.44;5042911;28;19912;-87
2022/11/21 11:03:44;;;;;;;;;;;;;;;18.60;73.05;100155.00;5080275;28;19919;-87
2022/11/21 11:06:10;;;;;;;;;;;;;;;18.58;72.96;100156.72;5069782;28;19908;-86
2022/11/21 11:08:51;;;;;;;;;;;;;;;18.59;73.03;100150.59;5067699;28;20365;-86
2022/11/21 11:11:19;;;;;;;;;;;;;;;18.59;73.10;100152.34;5062117;28;19912;-87
2022/11/21 11:14:10;;;;;;;;;;;;;;;18.62;73.09;100145.31;5068808;28;19916;-86
2022/11/21 11:16:36;;;;;;;;;;;;;;;18.61;72.95;100153.25;5058032;28;19908;-86
2022/11/21 11:19:07;;;;;;;;;;;;;;;18.63;73.25;100155.03;5054614;28;19912;-86
2022/11/21 11:21:39;;;;;;;;;;;;;;;18.63;73.04;100155.03;5053494;28;20437;-86
2022/11/21 11:24:06;;;;;;;;;;;;;;;18.62;72.92;100149.72;5058002;28;19962;-86
2022/11/21 11:26:32;;;;;;;;;;;;;;;18.67;73.08;100155.97;5067267;28;19912;-86
2022/11/21 11:29:07;;;;;;;;;;;;;;;18.68;72.68;100150.69;5070411;28;19909;-85
2022/11/21 11:31:40;;;;;;;;;;;;;;;18.69;72.55;100154.25;5053508;28;20286;-86
2022/11/21 11:34:08;;;;;;;;;;;;;;;18.75;72.73;100153.41;5069872;28;20450;-86
2022/11/21 11:36:38;;;;;;;;;;;;;;;18.66;72.54;100147.13;5070059;28;19915;-86
2022/11/21 11:39:16;;;;;;;;;;;;;;;18.59;72.14;100147.94;5071674;28;20301;-86
2022/11/21 11:47:29;;;;;;;;;;;;;;;18.71;72.60;100137.50;5061001;28;19959;-83
2022/11/21 11:50:12;;;;;;;;;;;;;;;18.71;72.26;100142.81;5057273;28;19967;-88
2022/11/21 11:52:49;;;;;;;;;;;;;;;18.71;72.01;100139.25;5047084;28;19908;-87
2022/11/21 11:55:16;;;;;;;;;;;;;;;18.66;72.39;100138.31;5076441;28;19908;-87
2022/11/21 11:57:41;;;;;;;;;;;;;;;18.62;72.01;100139.16;5049902;28;20007;-87
2022/11/21 12:00:27;;;;;;;;;;;;;;;18.61;72.32;100140.91;5057072;28;19942;-87
2022/11/21 12:02:56;;;;;;;;;;;;;;;18.63;71.76;100140.94;5052726;28;19963;-88
2022/11/21 12:05:25;;;;;;;;;;;;;;;18.69;71.92;100133.06;5070151;28;20019;-87
2022/11/21 12:07:55;;;;;;;;;;;;;;;18.68;71.85;100132.16;5054867;28;20500;-87
2022/11/21 12:10:28;;;;;;;;;;;;;;;18.64;71.79;100143.59;5052118;28;19915;-87
2022/11/21 12:12:55;;;;;;;;;;;;;;;18.68;71.69;100141.88;5052841;28;20362;-88
2022/11/21 12:18:15;;;;;;;;;;;;;;;18.70;71.47;100135.72;5067683;28;20343;-89
2022/11/21 12:20:56;;;;;;;;;;;;;;;18.73;71.25;100137.50;5072545;28;19928;-87
2022/11/21 12:23:29;;;;;;;;;;;;;;;18.71;71.75;100145.44;5064624;28;19924;-87
2022/11/21 12:26:14;;;;;;;;;;;;;;;18.68;71.22;100142.75;5065830;28;19999;-87
2022/11/21 12:28:57;;;;;;;;;;;;;;;18.69;71.90;100147.19;5066801;28;19914;-87
2022/11/21 12:31:41;;;;;;;;;;;;;;;18.66;71.66;100140.97;5081680;28;19912;-85
2022/11/21 12:34:12;;;;;;;;;;;;;;;18.68;72.05;100150.69;5073754;28;19913;-86
2022/11/21 12:36:57;;;;;;;;;;;;;;;18.76;71.63;100149.91;5059177;28;20359;-87
2022/11/21 12:39:41;;;;;;;;;;;;;;;18.78;71.37;100151.72;5063233;28;19919;-88
2022/11/21 12:45:08;;;;;;;;;;;;;;;18.71;71.64;100149.81;5068960;28;19973;-87
2022/11/21 12:56:13;;;;;;;;;;;;;;;18.38;70.49;100169.72;5091860;28;19958;-86
2022/11/21 12:58:39;;;;;;;;;;;;;;;18.34;70.03;100170.56;5081372;28;19959;-86
2022/11/21 13:01:23;;;;;;;;;;;;;;;18.38;69.63;100164.44;5071064;28;19967;-89
2022/11/21 13:04:02;;;;;;;;;;;;;;;18.43;69.43;100165.38;5066947;28;19919;-89
2022/11/21 13:06:31;;;;;;;;;;;;;;;18.47;69.20;100175.13;5072505;28;19974;-82
2022/11/21 13:08:57;;;;;;;;;;;;;;;18.55;68.66;100172.56;5066324;28;19919;-81
2022/11/21 13:14:28;;;;;;;;;;;;;;;18.58;66.63;100185.81;5074523;28;20397;-82
2022/11/21 13:17:06;;;;;;;;;;;;;;;18.49;68.44;100183.94;5058805;28;19920;-82
2022/11/21 13:19:50;;;;;;;;;;;;;;;18.68;66.60;100192.13;5069780;28;20011;-81
2022/11/21 13:22:34;;;;;;;;;;;;;;;18.65;65.47;100198.25;5069552;28;20025;-83
2022/11/21 13:25:12;;;;;;;;;;;;;;;18.72;64.67;100194.81;5063225;28;19999;-83